Faisalabad Weather



Faisalabad's Current Weather

Temprature 23.82o light rain

light rain

Rain: 263 %

Min Temprature23.82o
Max Temprature23.82o
Humidity50
Wind Speed11.77 m/h
Sun Rise06:12:05
Sun Set17:33:24
Current Time: 18-Oct-2019 15:54:12
Lat/Lon: 31.42, 73.09




Faisalabad's Geo Location



Faisalabad's Weather Forecast

Time Overall Temp Min Temp Max Temp Humidity Wind Speed Rain
18-Oct-2019 (Fri)
17:00:00 light rain 14.340 14.340 23.820 50 11.77 m/h 263 %
20:00:00 light rain 16.020 16.020 23.130 54 4.45 m/h 175 %
23:00:00 light rain 18.670 18.670 23.408 48 2.26 m/h 6 %
19-Oct-2019 (Sat)
02:00:00 clear sky 20.100 20.100 22.468 52 2.81 m/h 0 %
05:00:00 clear sky 20.903 20.903 20.903 58 1.8 m/h 0 %
08:00:00 clear sky 24.571 24.571 24.571 46 1.59 m/h 0 %
11:00:00 clear sky 30.960 30.960 30.960 27 2.98 m/h 0 %
14:00:00 clear sky 33.926 33.926 33.926 18 1.37 m/h 0 %
17:00:00 clear sky 31.732 31.732 31.732 19 1.26 m/h 0 %
20:00:00 clear sky 27.728 27.728 27.728 24 2.02 m/h 0 %
23:00:00 clear sky 25.437 25.437 25.437 28 2.43 m/h 0 %
20-Oct-2019 (Sun)
02:00:00 clear sky 24.227 24.227 24.227 31 1.69 m/h 0 %
05:00:00 clear sky 23.304 23.304 23.304 34 1.32 m/h 0 %
08:00:00 clear sky 26.212 26.212 26.212 29 1.14 m/h 0 %
11:00:00 clear sky 32.920 32.920 32.920 19 0.64 m/h 0 %
14:00:00 scattered clouds 34.792 34.792 34.792 15 0.61 m/h 0 %
17:00:00 scattered clouds 32.478 32.478 32.478 17 2.81 m/h 0 %
20:00:00 clear sky 27.662 27.662 27.662 23 2.24 m/h 0 %
23:00:00 clear sky 26.257 26.257 26.257 26 2.05 m/h 0 %
21-Oct-2019 (Mon)
02:00:00 clear sky 24.490 24.490 24.490 29 1.8 m/h 0 %
05:00:00 clear sky 23.591 23.591 23.591 29 1.96 m/h 0 %
08:00:00 clear sky 26.349 26.349 26.349 24 2.22 m/h 0 %
11:00:00 clear sky 32.887 32.887 32.887 16 1.71 m/h 0 %
14:00:00 clear sky 35.045 35.045 35.045 13 0.89 m/h 0 %
17:00:00 clear sky 32.454 32.454 32.454 15 1.56 m/h 0 %
20:00:00 clear sky 28.264 28.264 28.264 20 2.25 m/h 0 %
23:00:00 clear sky 26.390 26.390 26.390 22 1.85 m/h 0 %
22-Oct-2019 (Tue)
02:00:00 clear sky 24.486 24.486 24.486 25 1.26 m/h 0 %
05:00:00 clear sky 23.349 23.349 23.349 26 2.23 m/h 0 %
08:00:00 clear sky 25.932 25.932 25.932 22 1.81 m/h 0 %
11:00:00 clear sky 32.449 32.449 32.449 15 2.3 m/h 0 %
14:00:00 clear sky 35.569 35.569 35.569 11 0.54 m/h 0 %
17:00:00 few clouds 32.542 32.542 32.542 12 1.52 m/h 0 %
20:00:00 scattered clouds 28.150 28.150 28.150 16 1.73 m/h 0 %
23:00:00 scattered clouds 26.149 26.149 26.149 18 0.81 m/h 0 %
23-Oct-2019 (Wed)
02:00:00 scattered clouds 24.846 24.846 24.846 20 3.26 m/h 0 %
05:00:00 few clouds 23.007 23.007 23.007 23 1.93 m/h 0 %
08:00:00 clear sky 24.839 24.839 24.839 22 2.08 m/h 0 %
11:00:00 clear sky 31.935 31.935 31.935 13 1.12 m/h 0 %
14:00:00 clear sky 35.049 35.049 35.049 10 0.69 m/h 0 %


Faisalabad's Tourist Spots

Parks and Zoos in Faisalabad

Famous Cities (61)